createdAt,value
2023-05-19T00:00:31.369Z,63.45
2023-05-19T00:05:41.118Z,65.20
2023-05-19T00:10:45.246Z,63.98
2023-05-19T00:15:49.561Z,62.04
2023-05-19T00:20:53.615Z,60.97
2023-05-19T00:25:57.278Z,60.74
2023-05-19T00:31:02.375Z,61.49
2023-05-19T00:36:07.296Z,61.24
2023-05-19T00:41:11.459Z,61.39
2023-05-19T00:46:15.426Z,60.92
2023-05-19T00:51:19.333Z,61.43
2023-05-19T00:56:23.438Z,58.69
2023-05-19T01:01:28.234Z,58.71
2023-05-19T01:06:31.846Z,58.33
2023-05-19T01:11:35.849Z,57.74
2023-05-19T01:16:44.315Z,59.10
2023-05-19T01:22:23.168Z,59.05
2023-05-19T01:27:50.222Z,56.37
2023-05-19T01:33:03.027Z,58.18
2023-05-19T01:38:09.767Z,58.08
2023-05-19T01:43:18.300Z,58.82
2023-05-19T01:48:23.756Z,58.81
2023-05-19T01:53:27.437Z,60.77
2023-05-19T01:58:47.782Z,60.06
2023-05-19T02:04:06.068Z,61.41
2023-05-19T02:09:16.459Z,62.89
2023-05-19T02:14:46.072Z,62.24
2023-05-19T02:19:50.142Z,63.04
2023-05-19T02:24:56.726Z,63.66
2023-05-19T02:30:00.309Z,64.41
2023-05-19T02:35:04.386Z,64.48
2023-05-19T02:40:08.740Z,64.65
2023-05-19T02:45:12.464Z,63.55
2023-05-19T02:50:18.784Z,64.50
2023-05-19T02:55:22.236Z,63.90
2023-05-19T03:00:26.394Z,64.13
2023-05-19T03:05:33.239Z,63.76
2023-05-19T03:10:37.118Z,62.98
2023-05-19T03:15:40.748Z,63.55
2023-05-19T03:20:44.964Z,63.17
2023-05-19T03:25:48.154Z,62.57
2023-05-19T03:30:52.368Z,62.56
2023-05-19T03:35:59.625Z,64.85
2023-05-19T03:41:06.294Z,67.60
2023-05-19T03:46:11.047Z,69.64
2023-05-19T03:51:30.910Z,70.94
2023-05-19T03:56:54.484Z,71.34
2023-05-19T04:01:58.912Z,72.00
2023-05-19T04:07:02.994Z,72.00
2023-05-19T04:12:07.062Z,72.07
2023-05-19T04:17:10.440Z,71.80
2023-05-19T04:22:14.161Z,72.44
2023-05-19T04:27:19.034Z,70.82
2023-05-19T04:32:23.431Z,70.08
2023-05-19T04:37:28.000Z,69.32
2023-05-19T04:42:33.459Z,67.25
2023-05-19T04:47:39.100Z,67.13
2023-05-19T04:52:42.972Z,64.58
2023-05-19T04:57:47.430Z,66.43
2023-05-19T05:02:51.768Z,64.36
2023-05-19T05:07:57.735Z,62.84
2023-05-19T05:13:04.076Z,64.50
2023-05-19T05:18:09.258Z,61.80
2023-05-19T05:23:17.089Z,63.31
2023-05-19T05:28:23.608Z,61.91
2023-05-19T05:33:27.612Z,60.32
2023-05-19T05:38:32.534Z,62.08
2023-05-19T05:43:36.897Z,61.79
2023-05-19T05:48:43.296Z,61.00
2023-05-19T05:53:53.245Z,60.32
2023-05-19T05:58:59.676Z,60.49
2023-05-19T06:04:03.603Z,60.63
2023-05-19T06:09:08.357Z,60.13
2023-05-19T06:14:13.794Z,57.39
2023-05-19T06:19:35.826Z,52.39
2023-05-19T06:24:41.599Z,48.77
2023-05-19T06:29:46.695Z,48.80
2023-05-19T06:34:54.437Z,45.58
2023-05-19T06:39:59.085Z,45.04
2023-05-19T06:45:03.896Z,45.35
2023-05-19T06:50:07.989Z,44.55
2023-05-19T06:55:13.571Z,45.83
2023-05-19T07:00:18.832Z,47.19
2023-05-19T07:05:25.360Z,47.85
2023-05-19T07:10:35.255Z,46.69
2023-05-19T07:15:43.494Z,48.28
2023-05-19T07:20:47.167Z,49.11
2023-05-19T07:25:56.742Z,50.72
2023-05-19T07:31:01.272Z,51.28
2023-05-19T07:36:05.333Z,50.78
2023-05-19T07:41:09.170Z,53.93
2023-05-19T07:46:12.918Z,54.92
2023-05-19T07:51:16.986Z,55.09
2023-05-19T07:56:22.093Z,55.07
2023-05-19T08:01:26.736Z,54.16
2023-05-19T08:06:30.944Z,51.45
2023-05-19T08:11:34.586Z,52.98
2023-05-19T08:16:37.929Z,51.02
2023-05-19T08:21:42.876Z,53.56
2023-05-19T08:26:46.698Z,49.37
2023-05-19T08:31:50.925Z,51.03
2023-05-19T08:36:58.116Z,51.01
2023-05-19T08:42:02.779Z,50.63
2023-05-19T08:47:08.403Z,46.92
2023-05-19T08:52:21.235Z,49.07
2023-05-19T08:57:29.872Z,49.41
2023-05-19T09:02:34.420Z,48.52
2023-05-19T09:07:38.729Z,47.23
2023-05-19T09:12:46.813Z,47.68
2023-05-19T09:17:50.485Z,47.97
2023-05-19T09:22:54.315Z,46.52
2023-05-19T09:27:58.144Z,44.04
2023-05-19T09:33:01.786Z,46.06
2023-05-19T09:38:06.644Z,51.18
2023-05-19T09:43:10.979Z,47.02
2023-05-19T09:48:16.904Z,49.06
2023-05-19T09:53:22.826Z,50.23
2023-05-19T09:58:27.452Z,49.69
2023-05-19T10:03:33.840Z,54.57
2023-05-19T10:08:40.360Z,54.93
2023-05-19T10:13:48.051Z,55.65
2023-05-19T10:18:56.033Z,52.00
2023-05-19T10:24:00.809Z,49.88
2023-05-19T10:29:29.287Z,45.56
2023-05-19T10:35:05.655Z,47.78
2023-05-19T10:40:14.383Z,45.48
2023-05-19T10:45:24.772Z,50.80
2023-05-19T10:50:29.936Z,48.82
2023-05-19T10:55:53.706Z,52.07
2023-05-19T11:01:08.326Z,52.21
2023-05-19T11:06:36.539Z,55.77
2023-05-19T11:11:50.208Z,52.00
2023-05-19T11:16:59.154Z,57.85
2023-05-19T11:22:14.091Z,60.16
2023-05-19T11:27:37.860Z,58.34
2023-05-19T11:32:46.849Z,61.14
2023-05-19T11:37:52.973Z,64.58
2023-05-19T11:42:56.807Z,61.55
2023-05-19T11:48:03.017Z,60.32
2023-05-19T11:53:06.474Z,59.07
2023-05-19T11:58:10.048Z,63.17
2023-05-19T12:03:13.984Z,62.66
2023-05-19T12:08:21.893Z,62.29
2023-05-19T12:13:26.457Z,57.05
2023-05-19T12:18:34.675Z,57.79
2023-05-19T12:23:39.650Z,59.10
2023-05-19T12:28:46.354Z,60.96
2023-05-19T12:34:08.568Z,59.41
2023-05-19T12:39:13.526Z,58.43
2023-05-19T12:44:18.921Z,58.83
2023-05-19T12:49:22.943Z,57.30
2023-05-19T12:54:27.898Z,58.59
2023-05-19T12:59:38.904Z,61.28
2023-05-19T13:05:01.761Z,63.21
2023-05-19T13:10:06.886Z,65.72
2023-05-19T13:15:10.932Z,63.74
2023-05-19T13:20:15.777Z,64.44
2023-05-19T13:25:19.182Z,65.99
2023-05-19T13:30:24.518Z,67.74
2023-05-19T13:35:28.797Z,65.00
2023-05-19T13:40:35.200Z,61.80
2023-05-19T13:45:39.799Z,58.12
2023-05-19T13:50:43.553Z,56.98
2023-05-19T13:55:48.653Z,58.25
2023-05-19T14:00:54.993Z,57.63
2023-05-19T14:05:58.935Z,58.69
2023-05-19T14:11:02.923Z,57.33
2023-05-19T14:16:07.344Z,58.33
2023-05-19T14:21:11.040Z,58.90
2023-05-19T14:26:15.376Z,57.94
2023-05-19T14:31:19.265Z,59.10
2023-05-19T14:36:23.295Z,56.07
2023-05-19T14:41:26.633Z,53.83
2023-05-19T14:46:30.528Z,54.64
2023-05-19T14:51:33.939Z,53.98
2023-05-19T14:56:37.665Z,55.46
2023-05-19T15:01:41.974Z,55.67
2023-05-19T15:06:48.153Z,58.38
2023-05-19T15:11:56.327Z,57.64
2023-05-19T15:17:00.320Z,56.01
2023-05-19T15:22:04.502Z,55.58
2023-05-19T15:27:09.148Z,57.28
2023-05-19T15:32:13.031Z,57.26
2023-05-19T15:37:17.255Z,61.45
2023-05-19T15:42:21.125Z,63.17
2023-05-19T15:47:24.800Z,66.30
2023-05-19T15:52:28.329Z,67.03
2023-05-19T15:57:32.281Z,67.97
2023-05-19T16:02:36.254Z,68.88
2023-05-19T16:07:42.342Z,70.49
2023-05-19T16:12:46.569Z,69.25
2023-05-19T16:17:50.622Z,69.87
2023-05-19T16:22:55.859Z,69.69
2023-05-19T16:27:59.439Z,69.10
2023-05-19T16:33:02.786Z,69.78
2023-05-19T16:38:06.915Z,69.65
2023-05-19T16:43:12.147Z,70.10
2023-05-19T16:48:16.200Z,71.92
2023-05-19T16:53:20.371Z,73.91
2023-05-19T16:58:24.174Z,72.48
2023-05-19T17:03:28.014Z,73.38
2023-05-19T17:08:31.734Z,73.92
2023-05-19T17:13:36.853Z,73.87
2023-05-19T17:18:41.127Z,73.26
2023-05-19T17:23:44.889Z,72.48
2023-05-19T17:28:48.925Z,71.86
2023-05-19T17:33:52.513Z,71.32
2023-05-19T17:45:12.178Z,72.15
2023-05-19T17:50:15.609Z,72.01
2023-05-19T17:55:20.363Z,72.63
2023-05-19T18:00:25.382Z,72.93
2023-05-19T18:05:29.268Z,73.73
2023-05-19T18:10:37.964Z,72.55
2023-05-19T18:15:42.305Z,72.88
2023-05-19T18:20:45.986Z,72.78
2023-05-19T18:25:51.960Z,69.12
2023-05-19T18:31:06.419Z,70.49
2023-05-19T18:36:09.601Z,68.87
2023-05-19T18:41:14.303Z,68.71
2023-05-19T18:46:21.064Z,68.24
2023-05-19T18:51:24.227Z,67.02
2023-05-19T18:56:31.396Z,67.08
2023-05-19T19:01:35.350Z,68.00
2023-05-19T19:06:38.939Z,64.71
2023-05-19T19:11:42.640Z,66.42
2023-05-19T19:16:46.778Z,67.32
2023-05-19T19:21:50.311Z,65.95
2023-05-19T19:26:53.874Z,65.37
2023-05-19T19:31:57.469Z,65.67
2023-05-19T19:37:01.208Z,62.20
2023-05-19T19:42:05.175Z,64.52
2023-05-19T19:47:09.092Z,61.44
2023-05-19T19:52:12.881Z,62.69
2023-05-19T19:57:19.689Z,62.46
2023-05-19T20:02:23.270Z,64.65
2023-05-19T20:07:27.461Z,65.79
2023-05-19T20:12:30.969Z,63.06
2023-05-19T20:17:35.029Z,61.62
2023-05-19T20:22:39.961Z,62.12
2023-05-19T20:27:43.120Z,60.99
2023-05-19T20:32:47.005Z,61.17
2023-05-19T20:37:50.564Z,62.01
2023-05-19T20:42:54.090Z,62.30
2023-05-19T20:47:59.708Z,62.01
2023-05-19T20:53:03.575Z,62.17
2023-05-19T20:58:06.745Z,60.89
2023-05-19T21:03:11.865Z,60.36
2023-05-19T21:08:14.997Z,59.88
2023-05-19T21:13:19.000Z,59.39
2023-05-19T21:18:22.713Z,57.74
2023-05-19T21:23:26.304Z,57.43
2023-05-19T21:28:29.844Z,58.14
2023-05-19T21:33:33.313Z,57.25
2023-05-19T21:38:37.059Z,57.98
2023-05-19T21:43:43.209Z,57.16
2023-05-19T21:48:47.729Z,55.31
2023-05-19T21:53:51.101Z,54.32
2023-05-19T21:58:54.159Z,56.22
2023-05-19T22:03:57.980Z,53.48
2023-05-19T22:09:02.895Z,51.28
2023-05-19T22:14:07.127Z,52.20
2023-05-19T22:19:11.583Z,51.15
2023-05-19T22:24:15.360Z,52.12
2023-05-19T22:29:18.923Z,50.53
2023-05-19T22:34:22.412Z,49.85
2023-05-19T22:39:25.987Z,51.86
2023-05-19T22:44:29.826Z,51.18
2023-05-19T22:49:33.078Z,49.40
2023-05-19T22:54:36.907Z,51.29
2023-05-19T22:59:41.530Z,49.01
2023-05-19T23:04:44.985Z,53.93
2023-05-19T23:09:49.101Z,48.79
2023-05-19T23:14:53.706Z,52.60
2023-05-19T23:19:57.340Z,46.53
2023-05-19T23:25:02.236Z,47.77
2023-05-19T23:30:06.312Z,48.61
2023-05-19T23:35:17.531Z,49.08
2023-05-19T23:40:21.360Z,47.28
2023-05-19T23:45:24.803Z,49.08
2023-05-19T23:50:27.823Z,57.12
2023-05-19T23:55:31.539Z,56.07
